createdAt,value
2019-03-05T00:00:22.101Z,0.80
2019-03-05T00:02:50.240Z,0.73
2019-03-05T00:05:18.553Z,0.70
2019-03-05T00:07:46.727Z,0.63
2019-03-05T00:10:16.129Z,0.60
2019-03-05T00:12:44.287Z,0.70
2019-03-05T00:15:13.566Z,0.80
2019-03-05T00:17:41.704Z,0.70
2019-03-05T00:20:29.398Z,0.80
2019-03-05T00:22:57.570Z,0.70
2019-03-05T00:25:45.098Z,0.80
2019-03-05T00:28:29.697Z,0.70
2019-03-05T00:31:02.314Z,0.70
2019-03-05T00:33:32.863Z,0.60
2019-03-05T00:36:14.915Z,0.50
2019-03-05T00:38:44.594Z,0.60
2019-03-05T00:41:32.851Z,0.60
2019-03-05T00:44:11.366Z,0.70
2019-03-05T00:46:41.069Z,0.60
2019-03-05T00:49:10.770Z,0.70
2019-03-05T00:51:49.590Z,0.70
2019-03-05T00:54:25.374Z,0.63
2019-03-05T00:57:12.987Z,0.80
2019-03-05T00:59:59.522Z,0.80
2019-03-05T01:02:29.190Z,0.83
2019-03-05T01:05:01.853Z,0.90
2019-03-05T01:07:30.148Z,1.07
2019-03-05T01:09:58.637Z,1.00
2019-03-05T01:12:26.945Z,1.10
2019-03-05T01:14:56.718Z,1.17
2019-03-05T01:17:24.874Z,0.83
2019-03-05T01:19:53.010Z,0.83
2019-03-05T01:22:21.494Z,0.73
2019-03-05T01:25:09.018Z,0.80
2019-03-05T01:27:37.174Z,0.80
2019-03-05T01:30:06.165Z,0.80
2019-03-05T01:32:41.610Z,1.00
2019-03-05T01:38:07.963Z,1.00
2019-03-05T01:40:36.917Z,1.10
2019-03-05T01:43:05.087Z,0.90
2019-03-05T01:45:33.273Z,1.00
2019-03-05T01:48:01.375Z,0.80
2019-03-05T01:50:29.496Z,1.20
2019-03-05T01:52:57.806Z,1.00
2019-03-05T01:55:25.926Z,1.00
2019-03-05T01:57:54.048Z,1.00
2019-03-05T02:00:22.181Z,1.00
2019-03-05T02:02:50.323Z,1.00
2019-03-05T02:05:18.446Z,1.20
2019-03-05T02:07:46.638Z,1.10
2019-03-05T02:10:16.358Z,0.93
2019-03-05T02:12:44.497Z,1.13
2019-03-05T02:15:12.637Z,0.90
2019-03-05T02:17:40.766Z,0.90
2019-03-05T02:20:13.573Z,0.80
2019-03-05T02:22:42.109Z,0.70
2019-03-05T02:25:11.840Z,0.70
2019-03-05T02:27:41.542Z,0.60
2019-03-05T02:30:14.327Z,0.70
2019-03-05T02:32:50.048Z,0.70
2019-03-05T02:35:20.008Z,0.60
2019-03-05T02:37:58.586Z,0.73
2019-03-05T02:40:28.654Z,0.70
2019-03-05T02:42:58.381Z,0.73
2019-03-05T02:45:31.699Z,0.67
2019-03-05T02:48:13.537Z,0.80
2019-03-05T02:50:43.227Z,0.97
2019-03-05T02:53:12.896Z,0.70
2019-03-05T02:55:51.754Z,1.00
2019-03-05T02:58:19.358Z,0.77
2019-03-05T03:00:51.818Z,0.70
2019-03-05T03:03:27.398Z,0.80
2019-03-05T03:05:57.191Z,0.90
2019-03-05T03:08:25.370Z,0.83
2019-03-05T03:10:53.701Z,0.80
2019-03-05T03:13:21.908Z,0.70
2019-03-05T03:15:50.053Z,0.80
2019-03-05T03:18:18.454Z,1.10
2019-03-05T03:20:46.642Z,0.80
2019-03-05T03:23:14.793Z,1.03
2019-03-05T03:25:43.121Z,0.93
2019-03-05T03:28:11.346Z,0.90
2019-03-05T03:30:39.495Z,0.87
2019-03-05T03:33:07.647Z,0.90
2019-03-05T03:35:35.787Z,0.80
2019-03-05T03:38:03.942Z,0.90
2019-03-05T03:40:32.527Z,0.90
2019-03-05T03:43:00.700Z,1.07
2019-03-05T03:45:28.823Z,0.90
2019-03-05T03:47:56.998Z,1.03
2019-03-05T03:50:25.149Z,1.37
2019-03-05T03:52:53.298Z,0.97
2019-03-05T03:55:21.874Z,1.00
2019-03-05T03:57:50.010Z,0.97
2019-03-05T04:00:21.558Z,0.90
2019-03-05T04:02:50.002Z,0.80
2019-03-05T04:05:18.165Z,1.00
2019-03-05T04:07:46.371Z,1.00
2019-03-05T04:10:15.759Z,1.10
2019-03-05T04:12:43.908Z,0.90
2019-03-05T04:15:15.934Z,1.10
2019-03-05T04:17:44.230Z,1.00
2019-03-05T04:20:14.798Z,1.00
2019-03-05T04:22:42.930Z,1.20
2019-03-05T04:25:11.199Z,0.90
2019-03-05T04:27:39.369Z,1.20
2019-03-05T04:30:09.098Z,1.23
2019-03-05T04:32:37.301Z,1.20
2019-03-05T04:35:07.302Z,1.10
2019-03-05T04:37:35.565Z,1.07
2019-03-05T04:40:05.052Z,1.07
2019-03-05T04:42:33.185Z,1.07
2019-03-05T04:45:02.984Z,0.93
2019-03-05T04:47:31.313Z,1.00
2019-03-05T04:50:01.093Z,1.10
2019-03-05T04:52:29.228Z,1.27
2019-03-05T04:54:57.434Z,1.03
2019-03-05T04:57:25.577Z,1.10
2019-03-05T04:59:53.704Z,1.13
2019-03-05T05:02:21.872Z,1.10
2019-03-05T05:04:50.014Z,1.20
2019-03-05T05:07:18.182Z,0.80
2019-03-05T05:09:46.524Z,1.00
2019-03-05T05:12:14.666Z,1.10
2019-03-05T05:14:42.806Z,0.97
2019-03-05T05:17:11.082Z,1.20
2019-03-05T05:19:39.216Z,0.87
2019-03-05T05:22:07.354Z,1.00
2019-03-05T05:24:35.538Z,0.97
2019-03-05T05:27:03.702Z,0.80
2019-03-05T05:29:31.866Z,0.80
2019-03-05T05:32:00.091Z,0.73
2019-03-05T05:34:28.248Z,0.77
2019-03-05T05:37:15.874Z,0.80
2019-03-05T05:40:04.901Z,0.90
2019-03-05T05:42:33.297Z,0.90
2019-03-05T05:45:01.473Z,1.20
2019-03-05T05:47:29.623Z,0.90
2019-03-05T05:49:57.775Z,1.00
2019-03-05T05:52:25.939Z,0.73
2019-03-05T05:54:54.147Z,1.00
2019-03-05T05:57:22.325Z,1.17
2019-03-05T05:59:50.502Z,0.93
2019-03-05T06:02:18.681Z,1.10
2019-03-05T06:04:46.886Z,0.80
2019-03-05T06:07:15.022Z,0.90
2019-03-05T06:09:43.162Z,1.40
2019-03-05T06:12:11.562Z,1.23
2019-03-05T06:14:39.726Z,1.00
2019-03-05T06:17:07.858Z,0.90
2019-03-05T06:19:36.063Z,1.00
2019-03-05T06:22:04.270Z,1.13
2019-03-05T06:24:32.449Z,1.10
2019-03-05T06:27:00.785Z,0.90
2019-03-05T06:29:28.921Z,0.90
2019-03-05T06:31:57.072Z,1.00
2019-03-05T06:34:25.367Z,1.00
2019-03-05T06:36:54.182Z,1.00
2019-03-05T06:41:51.524Z,1.20
2019-03-05T06:44:19.661Z,1.13
2019-03-05T06:46:47.808Z,1.27
2019-03-05T06:49:15.993Z,1.30
2019-03-05T06:51:44.133Z,1.20
2019-03-05T06:54:12.290Z,1.10
2019-03-05T06:56:40.779Z,1.10
2019-03-05T06:59:08.944Z,1.23
2019-03-05T07:01:37.113Z,1.00
2019-03-05T07:04:05.281Z,1.17
2019-03-05T07:06:52.252Z,1.27
2019-03-05T07:09:38.680Z,1.00
2019-03-05T07:12:23.171Z,0.90
2019-03-05T07:15:29.057Z,1.00
2019-03-05T07:18:18.164Z,1.10
2019-03-05T07:20:54.185Z,0.90
2019-03-05T07:25:43.560Z,1.30
2019-03-05T07:28:11.696Z,1.20
2019-03-05T07:30:39.910Z,1.30
2019-03-05T07:33:08.222Z,1.27
2019-03-05T07:35:36.383Z,1.03
2019-03-05T07:38:24.026Z,1.07
2019-03-05T07:40:52.590Z,1.20
2019-03-05T07:43:20.747Z,1.33
2019-03-05T07:45:49.049Z,1.33
2019-03-05T07:48:17.213Z,1.30
2019-03-05T07:50:45.381Z,1.20
2019-03-05T07:53:13.725Z,1.30
2019-03-05T07:55:41.875Z,1.37
2019-03-05T07:58:10.026Z,1.30
2019-03-05T08:00:38.206Z,1.30
2019-03-05T08:03:06.367Z,1.10
2019-03-05T08:05:34.509Z,1.27
2019-03-05T08:08:40.282Z,1.03
2019-03-05T08:11:08.439Z,1.20
2019-03-05T08:13:38.113Z,1.17
2019-03-05T08:16:17.177Z,1.47
2019-03-05T08:18:45.294Z,1.30
2019-03-05T08:21:13.457Z,1.20
2019-03-05T08:23:41.687Z,1.37
2019-03-05T08:26:09.964Z,1.10
2019-03-05T08:28:38.093Z,1.30
2019-03-05T08:31:06.370Z,1.30
2019-03-05T08:33:34.506Z,1.30
2019-03-05T08:36:02.709Z,1.40
2019-03-05T08:38:31.070Z,1.40
2019-03-05T08:41:18.538Z,1.20
2019-03-05T08:43:46.836Z,1.37
2019-03-05T08:46:34.403Z,1.13
2019-03-05T08:49:02.718Z,1.20
2019-03-05T08:51:30.894Z,1.20
2019-03-05T08:53:59.058Z,1.07
2019-03-05T08:56:27.242Z,1.27
2019-03-05T08:58:55.393Z,1.40
2019-03-05T09:01:23.510Z,1.50
2019-03-05T09:03:51.691Z,1.30
2019-03-05T09:06:19.825Z,1.17
2019-03-05T09:08:47.968Z,1.10
2019-03-05T09:11:35.495Z,0.90
2019-03-05T09:14:22.987Z,1.10
2019-03-05T09:16:51.198Z,1.20
2019-03-05T09:19:19.343Z,1.00
2019-03-05T09:21:49.218Z,1.20
2019-03-05T09:24:17.551Z,0.77
2019-03-05T09:26:51.340Z,1.20
2019-03-05T09:29:15.554Z,1.00
2019-03-05T09:31:43.695Z,1.07
2019-03-05T09:34:11.829Z,1.50
2019-03-05T09:36:50.404Z,1.20
2019-03-05T09:39:10.522Z,1.30
2019-03-05T09:41:38.666Z,1.10
2019-03-05T09:44:26.906Z,1.20
2019-03-05T09:46:55.093Z,1.00
2019-03-05T09:49:23.218Z,0.90
2019-03-05T09:51:51.489Z,1.03
2019-03-05T09:54:19.602Z,0.90
2019-03-05T09:56:47.758Z,0.90
2019-03-05T09:59:16.033Z,1.00
2019-03-05T10:01:44.161Z,0.93
2019-03-05T10:04:12.302Z,1.00
2019-03-05T10:06:40.476Z,0.80
2019-03-05T10:09:27.951Z,1.17
2019-03-05T10:11:57.021Z,0.83
2019-03-05T10:14:44.578Z,1.07
2019-03-05T10:23:41.189Z,1.00
2019-03-05T10:26:10.569Z,0.93
2019-03-05T10:28:39.028Z,0.77
2019-03-05T10:31:26.731Z,1.00
2019-03-05T10:33:55.005Z,0.70
2019-03-05T10:39:31.312Z,0.88
2019-03-05T10:44:41.202Z,0.80
2019-03-05T10:47:09.362Z,0.82
2019-03-05T10:49:37.499Z,0.93
2019-03-05T10:52:05.783Z,0.75
2019-03-05T10:54:53.288Z,0.80
2019-03-05T11:00:46.956Z,0.75
2019-03-05T11:03:34.454Z,1.10
2019-03-05T11:09:25.866Z,0.72
2019-03-05T11:11:54.162Z,0.70
2019-03-05T11:14:41.736Z,0.93
2019-03-05T11:19:57.531Z,0.70
2019-03-05T11:22:25.706Z,0.80
2019-03-05T11:25:13.266Z,1.10
2019-03-05T11:27:41.502Z,0.90
2019-03-05T11:30:36.020Z,1.22
2019-03-05T11:32:58.910Z,0.82
2019-03-05T11:35:47.904Z,1.20
2019-03-05T11:38:16.361Z,1.30
2019-03-05T11:40:44.499Z,0.95
2019-03-05T11:43:13.717Z,0.90
2019-03-05T11:46:01.188Z,0.80
2019-03-05T11:51:23.012Z,0.82
2019-03-05T11:53:51.118Z,0.88
2019-03-05T11:56:38.591Z,0.70
2019-03-05T11:59:06.948Z,0.70
2019-03-05T12:01:54.451Z,0.90
2019-03-05T12:07:21.034Z,0.80
2019-03-05T12:09:49.241Z,1.05
2019-03-05T12:12:17.378Z,0.90
2019-03-05T12:15:04.917Z,0.70
2019-03-05T12:17:33.039Z,0.80
2019-03-05T12:20:01.210Z,0.80
2019-03-05T12:22:31.532Z,0.72
2019-03-05T12:25:18.654Z,0.80
2019-03-05T12:27:47.801Z,0.70
2019-03-05T12:30:35.307Z,0.93
2019-03-05T12:33:28.983Z,0.80
2019-03-05T12:39:10.142Z,0.80
2019-03-05T12:41:57.621Z,0.70
2019-03-05T12:44:26.097Z,0.78
2019-03-05T12:46:54.222Z,1.03
2019-03-05T12:49:22.368Z,0.90
2019-03-05T12:52:09.925Z,0.70
2019-03-05T12:54:38.122Z,0.80
2019-03-05T12:57:06.262Z,0.73
2019-03-05T12:59:34.553Z,0.90
2019-03-05T13:02:02.723Z,0.90
2019-03-05T13:04:30.874Z,0.80
2019-03-05T13:06:59.059Z,0.97
2019-03-05T13:09:27.264Z,1.07
2019-03-05T13:11:55.423Z,0.80
2019-03-05T13:14:23.759Z,0.90
2019-03-05T13:16:51.891Z,1.00
2019-03-05T13:19:39.506Z,0.93
2019-03-05T13:22:07.635Z,1.07
2019-03-05T13:24:55.263Z,0.90
2019-03-05T13:27:42.729Z,0.80
2019-03-05T13:30:34.859Z,1.40
2019-03-05T13:33:02.994Z,0.93
2019-03-05T13:35:50.850Z,0.93
2019-03-05T13:41:31.807Z,0.90
2019-03-05T13:43:59.957Z,0.95
2019-03-05T13:46:29.741Z,0.77
2019-03-05T13:49:19.046Z,1.03
2019-03-05T13:52:11.045Z,1.00
2019-03-05T13:54:58.681Z,1.00
2019-03-05T13:58:02.986Z,0.90
2019-03-05T14:00:31.146Z,0.80
2019-03-05T14:03:00.567Z,0.80
2019-03-05T14:05:30.253Z,1.00
2019-03-05T14:08:02.855Z,0.60
2019-03-05T14:10:31.081Z,0.80
2019-03-05T14:12:59.265Z,0.93
2019-03-05T14:18:01.452Z,0.90
2019-03-05T14:20:31.877Z,1.00
2019-03-05T14:22:59.586Z,1.07
2019-03-05T14:25:27.747Z,1.20
2019-03-05T14:27:56.073Z,0.73
2019-03-05T14:30:24.439Z,1.20
2019-03-05T14:33:12.117Z,0.67
2019-03-05T14:35:40.631Z,0.93
2019-03-05T14:38:08.869Z,1.03
2019-03-05T14:40:38.007Z,1.00
2019-03-05T14:43:06.312Z,1.27
2019-03-05T14:45:53.853Z,1.13
2019-03-05T14:48:22.053Z,0.70
2019-03-05T14:50:50.228Z,0.80
2019-03-05T14:53:18.514Z,0.90
2019-03-05T14:56:06.067Z,0.87
2019-03-05T14:58:34.212Z,1.10
2019-03-05T15:01:02.535Z,0.87
2019-03-05T15:03:30.721Z,1.00
2019-03-05T15:05:58.895Z,0.70
2019-03-05T15:08:27.110Z,0.80
2019-03-05T15:10:55.351Z,0.83
2019-03-05T15:13:23.655Z,1.10
2019-03-05T15:15:51.838Z,0.73
2019-03-05T15:18:20.011Z,0.90
2019-03-05T15:20:48.747Z,1.10
2019-03-05T15:23:16.934Z,0.90
2019-03-05T15:25:45.135Z,1.10
2019-03-05T15:28:13.350Z,1.03
2019-03-05T15:30:41.597Z,1.00
2019-03-05T15:33:09.845Z,1.27
2019-03-05T15:35:38.190Z,0.90
2019-03-05T15:38:06.420Z,0.83
2019-03-05T15:40:34.553Z,0.90
2019-03-05T15:43:02.858Z,1.17
2019-03-05T15:45:31.057Z,1.20
2019-03-05T15:47:59.267Z,1.10
2019-03-05T15:50:28.709Z,0.90
2019-03-05T15:52:57.013Z,1.00
2019-03-05T15:55:25.577Z,1.10
2019-03-05T15:57:53.778Z,1.43
2019-03-05T16:03:12.449Z,1.10
2019-03-05T16:05:40.679Z,1.10
2019-03-05T16:08:08.834Z,1.20
2019-03-05T16:10:58.727Z,1.10
2019-03-05T16:13:26.364Z,1.40
2019-03-05T16:15:54.487Z,1.33
2019-03-05T16:18:22.911Z,1.30
2019-03-05T16:21:10.383Z,1.20
2019-03-05T16:23:38.721Z,1.20
2019-03-05T16:26:06.890Z,1.43
2019-03-05T16:28:35.094Z,1.67
2019-03-05T16:31:07.753Z,1.30
2019-03-05T16:34:14.384Z,1.43
2019-03-05T16:37:05.320Z,1.17
2019-03-05T16:48:06.339Z,1.40
2019-03-05T16:50:53.470Z,1.90
2019-03-05T16:53:31.909Z,1.70
2019-03-05T16:56:17.850Z,1.47
2019-03-05T16:58:47.699Z,1.00
2019-03-05T17:01:23.076Z,1.10
2019-03-05T17:03:52.861Z,1.00
2019-03-05T17:06:25.386Z,1.00
2019-03-05T17:09:04.101Z,1.73
2019-03-05T17:11:33.898Z,1.00
2019-03-05T17:14:02.045Z,1.50
2019-03-05T17:16:30.344Z,1.20
2019-03-05T17:18:58.471Z,1.23
2019-03-05T17:21:27.742Z,1.20
2019-03-05T17:23:56.259Z,1.23
2019-03-05T17:26:24.399Z,0.93
2019-03-05T17:28:52.529Z,1.47
2019-03-05T17:31:20.770Z,1.40
2019-03-05T17:33:48.978Z,1.87
2019-03-05T17:36:17.191Z,1.37
2019-03-05T17:38:45.421Z,1.50
2019-03-05T17:41:13.557Z,1.70
2019-03-05T17:43:41.714Z,1.40
2019-03-05T17:46:09.870Z,1.20
2019-03-05T17:48:38.034Z,1.30
2019-03-05T17:51:06.251Z,1.63
2019-03-05T17:53:34.641Z,0.90
2019-03-05T17:56:02.854Z,1.00
2019-03-05T17:58:30.986Z,1.13
2019-03-05T18:00:59.159Z,1.27
2019-03-05T18:03:27.333Z,1.10
2019-03-05T18:05:55.466Z,0.90
2019-03-05T18:08:23.893Z,1.00
2019-03-05T18:10:52.109Z,0.80
2019-03-05T18:13:20.237Z,1.30
2019-03-05T18:15:48.439Z,1.07
2019-03-05T18:18:16.858Z,1.00
2019-03-05T18:20:45.010Z,1.10
2019-03-05T18:23:13.481Z,1.40
2019-03-05T18:25:41.721Z,1.60
2019-03-05T18:28:09.894Z,1.03
2019-03-05T18:30:38.183Z,1.20
2019-03-05T18:33:06.546Z,1.23
2019-03-05T18:35:34.674Z,1.67
2019-03-05T18:38:03.021Z,1.40
2019-03-05T18:40:31.157Z,0.90
2019-03-05T18:42:59.359Z,1.07
2019-03-05T18:45:29.125Z,0.90
2019-03-05T18:47:57.525Z,0.90
2019-03-05T18:50:25.666Z,1.10
2019-03-05T18:52:54.605Z,1.30
2019-03-05T18:55:23.541Z,1.20
2019-03-05T18:57:51.856Z,1.30
2019-03-05T19:00:21.570Z,1.30
2019-03-05T19:02:50.264Z,1.33
2019-03-05T19:05:18.502Z,1.10
2019-03-05T19:07:47.002Z,1.30
2019-03-05T19:10:16.247Z,1.20
2019-03-05T19:12:44.409Z,1.40
2019-03-05T19:15:14.191Z,1.10
2019-03-05T19:17:42.363Z,1.23
2019-03-05T19:20:12.034Z,1.17
2019-03-05T19:22:40.263Z,1.23
2019-03-05T19:25:09.935Z,1.10
2019-03-05T19:27:38.093Z,1.20
2019-03-05T19:30:07.914Z,1.30
2019-03-05T19:32:36.062Z,1.30
2019-03-05T19:35:05.370Z,1.47
2019-03-05T19:37:33.809Z,1.43
2019-03-05T19:40:01.952Z,1.27
2019-03-05T19:42:30.110Z,1.33
2019-03-05T19:44:58.312Z,1.40
2019-03-05T19:47:26.470Z,1.40
2019-03-05T19:49:54.650Z,1.40
2019-03-05T19:52:23.065Z,1.40
2019-03-05T19:54:51.222Z,1.40
2019-03-05T19:57:19.369Z,1.70
2019-03-05T19:59:47.877Z,1.30
2019-03-05T20:02:16.042Z,1.60
2019-03-05T20:04:44.213Z,1.70
2019-03-05T20:07:12.359Z,1.40
2019-03-05T20:09:40.518Z,1.40
2019-03-05T20:12:08.833Z,1.30
2019-03-05T20:14:37.010Z,1.40
2019-03-05T20:17:05.185Z,1.57
2019-03-05T20:19:33.398Z,1.50
2019-03-05T20:22:01.613Z,1.50
2019-03-05T20:24:30.018Z,1.60
2019-03-05T20:26:58.185Z,1.60
2019-03-05T20:29:26.486Z,1.90
2019-03-05T20:31:54.646Z,1.50
2019-03-05T20:34:22.812Z,2.20
2019-03-05T20:37:10.455Z,2.00
2019-03-05T20:39:38.590Z,2.03
2019-03-05T20:42:06.727Z,2.40
2019-03-05T20:44:54.358Z,2.10
2019-03-05T20:47:23.137Z,2.00
2019-03-05T20:49:51.305Z,2.20
2019-03-05T20:52:19.869Z,1.97
2019-03-05T20:54:48.077Z,1.90
2019-03-05T20:57:17.278Z,1.90
2019-03-05T20:59:45.438Z,1.97
2019-03-05T21:02:32.937Z,1.77
2019-03-05T21:05:01.350Z,2.10
2019-03-05T21:07:29.737Z,2.03
2019-03-05T21:09:57.890Z,2.00
2019-03-05T21:12:26.082Z,1.93
2019-03-05T21:14:54.221Z,1.80
2019-03-05T21:17:22.422Z,1.93
2019-03-05T21:19:50.765Z,2.30
2019-03-05T21:22:18.901Z,2.00
2019-03-05T21:25:06.434Z,2.23
2019-03-05T21:27:53.915Z,2.40
2019-03-05T21:30:28.677Z,2.47
2019-03-05T21:32:56.885Z,2.60
2019-03-05T21:35:25.022Z,2.57
2019-03-05T21:37:53.594Z,2.63
2019-03-05T21:40:25.287Z,2.57
2019-03-05T21:42:53.410Z,2.67
2019-03-05T21:45:29.081Z,2.17
2019-03-05T21:47:57.223Z,2.50
2019-03-05T21:50:25.358Z,2.97
2019-03-05T21:52:53.618Z,3.10
2019-03-05T21:55:21.754Z,2.67
2019-03-05T21:58:09.372Z,2.33
2019-03-05T22:00:38.517Z,2.80
2019-03-05T22:03:06.739Z,2.90
2019-03-05T22:05:34.862Z,2.77
2019-03-05T22:08:03.052Z,2.70
2019-03-05T22:10:31.157Z,2.40
2019-03-05T22:12:59.328Z,2.80
2019-03-05T22:15:28.189Z,2.80
2019-03-05T22:17:56.321Z,3.23
2019-03-05T22:20:24.591Z,2.90
2019-03-05T22:22:52.736Z,2.83
2019-03-05T22:25:21.294Z,2.43
2019-03-05T22:27:49.546Z,2.60
2019-03-05T22:30:37.075Z,2.80
2019-03-05T22:33:05.197Z,2.93
2019-03-05T22:35:33.305Z,3.20
2019-03-05T22:38:01.422Z,2.93
2019-03-05T22:40:29.574Z,2.90
2019-03-05T22:42:57.681Z,2.90
2019-03-05T22:45:26.250Z,2.63
2019-03-05T22:47:54.988Z,3.10
2019-03-05T22:50:23.090Z,2.77
2019-03-05T22:52:51.193Z,2.93
2019-03-05T22:55:19.682Z,3.23
2019-03-05T22:57:47.808Z,3.03
2019-03-05T23:00:18.622Z,3.07
2019-03-05T23:02:46.774Z,3.10
2019-03-05T23:05:14.965Z,3.10
2019-03-05T23:07:43.063Z,3.07
2019-03-05T23:10:12.458Z,3.07
2019-03-05T23:12:40.645Z,3.03
2019-03-05T23:15:10.035Z,3.17
2019-03-05T23:17:38.732Z,2.90
2019-03-05T23:20:27.651Z,2.97
2019-03-05T23:22:55.973Z,3.40
2019-03-05T23:25:24.107Z,3.30
2019-03-05T23:27:52.270Z,3.00
2019-03-05T23:30:21.060Z,3.07
2019-03-05T23:32:50.694Z,3.00
2019-03-05T23:35:18.967Z,3.07
2019-03-05T23:37:47.466Z,3.30
2019-03-05T23:40:15.870Z,3.03
2019-03-05T23:42:44.092Z,2.87
2019-03-05T23:45:13.973Z,3.13
2019-03-05T23:47:42.122Z,3.30
2019-03-05T23:50:11.626Z,3.40
2019-03-05T23:52:42.248Z,3.13
2019-03-05T23:55:10.461Z,3.77
2019-03-05T23:57:38.662Z,3.80
